createdAt,value
2018-09-13T00:03:18.673Z,5.80
2018-09-13T00:07:12.676Z,5.90
2018-09-13T00:11:06.683Z,6.40
2018-09-13T00:15:00.640Z,6.27
2018-09-13T00:18:54.845Z,6.80
2018-09-13T00:22:48.757Z,7.03
2018-09-13T00:26:42.727Z,7.73
2018-09-13T00:30:36.754Z,8.07
2018-09-13T00:34:30.712Z,8.90
2018-09-13T00:38:24.703Z,9.80
2018-09-13T00:42:18.678Z,9.47
2018-09-13T00:46:12.655Z,9.43
2018-09-13T00:50:06.682Z,10.23
2018-09-13T00:54:00.622Z,9.70
2018-09-13T00:57:54.573Z,10.50
2018-09-13T01:01:48.571Z,10.87
2018-09-13T01:05:42.494Z,9.33
2018-09-13T01:09:36.432Z,8.87
2018-09-13T01:13:30.359Z,8.90
2018-09-13T01:17:24.250Z,8.80
2018-09-13T01:21:18.156Z,9.17
2018-09-13T01:25:12.051Z,9.20
2018-09-13T01:29:05.958Z,10.23
2018-09-13T01:32:59.912Z,9.20
2018-09-13T01:36:54.212Z,9.57
2018-09-13T01:40:48.163Z,9.40
2018-09-13T01:44:42.097Z,8.97
2018-09-13T01:48:36.013Z,8.53
2018-09-13T01:52:29.945Z,8.93
2018-09-13T01:56:23.884Z,9.57
2018-09-13T02:00:17.847Z,9.43
2018-09-13T02:04:11.797Z,8.83
2018-09-13T02:08:05.807Z,8.97
2018-09-13T02:11:59.708Z,9.20
2018-09-13T02:15:53.604Z,9.30
2018-09-13T02:19:47.596Z,9.47
2018-09-13T02:23:41.502Z,9.00
2018-09-13T02:27:35.425Z,9.07
2018-09-13T02:31:29.391Z,9.93
2018-09-13T02:35:23.278Z,10.40
2018-09-13T02:39:17.231Z,10.20
2018-09-13T02:43:11.133Z,10.60
2018-09-13T02:47:05.029Z,10.30
2018-09-13T02:50:58.943Z,9.93
2018-09-13T02:54:59.579Z,10.47
2018-09-13T02:58:53.547Z,9.90
2018-09-13T03:02:47.514Z,10.33
2018-09-13T03:06:41.463Z,10.77
2018-09-13T03:10:35.420Z,10.40
2018-09-13T03:14:29.372Z,10.10
2018-09-13T03:18:23.271Z,9.87
2018-09-13T03:22:17.205Z,10.50
2018-09-13T03:26:11.156Z,11.03
2018-09-13T03:30:05.128Z,10.53
2018-09-13T03:33:59.112Z,11.80
2018-09-13T03:37:53.343Z,11.30
2018-09-13T03:41:47.300Z,12.07
2018-09-13T03:45:41.350Z,11.97
2018-09-13T03:49:35.243Z,11.23
2018-09-13T03:53:29.177Z,11.53
2018-09-13T03:57:23.111Z,11.50
2018-09-13T04:01:17.052Z,11.07
2018-09-13T04:05:10.938Z,12.13
2018-09-13T04:09:07.941Z,11.13
2018-09-13T04:13:01.857Z,11.30
2018-09-13T04:16:55.777Z,9.20
2018-09-13T04:20:49.725Z,9.93
2018-09-13T04:24:44.121Z,9.10
2018-09-13T04:28:38.820Z,9.60
2018-09-13T04:32:32.746Z,9.35
2018-09-13T04:36:26.697Z,8.70
2018-09-13T04:40:20.994Z,8.80
2018-09-13T04:44:16.005Z,8.97
2018-09-13T04:48:11.734Z,8.50
2018-09-13T04:52:05.772Z,8.40
2018-09-13T04:55:59.715Z,8.60
2018-09-13T04:59:53.624Z,9.07
2018-09-13T05:03:47.572Z,8.63
2018-09-13T05:07:41.471Z,9.00
2018-09-13T05:11:35.401Z,9.37
2018-09-13T05:15:29.416Z,9.90
2018-09-13T05:19:23.344Z,9.83
2018-09-13T05:23:17.250Z,10.27
2018-09-13T05:27:11.166Z,11.27
2018-09-13T05:31:05.177Z,10.50
2018-09-13T05:34:59.119Z,10.77
2018-09-13T05:38:53.155Z,10.87
2018-09-13T05:42:47.067Z,10.07
2018-09-13T05:46:41.096Z,11.13
2018-09-13T05:50:35.026Z,11.10
2018-09-13T05:54:28.992Z,10.60
2018-09-13T05:58:22.953Z,11.30
2018-09-13T06:02:16.926Z,11.60
2018-09-13T06:06:10.878Z,10.90
2018-09-13T06:10:04.910Z,10.80
2018-09-13T06:13:58.879Z,11.10
2018-09-13T06:17:53.307Z,10.80
2018-09-13T06:21:47.203Z,11.67
2018-09-13T06:25:41.205Z,10.90
2018-09-13T06:29:35.555Z,10.20
2018-09-13T06:33:29.668Z,11.73
2018-09-13T06:37:23.833Z,10.77
2018-09-13T06:41:20.845Z,9.98
2018-09-13T06:45:14.799Z,10.30
2018-09-13T06:49:08.839Z,10.43
2018-09-13T06:53:03.098Z,9.73
2018-09-13T06:56:57.111Z,8.90
2018-09-13T07:00:51.091Z,8.87
2018-09-13T07:04:45.093Z,9.33
2018-09-13T07:08:39.053Z,9.87
2018-09-13T07:12:33.045Z,10.10
2018-09-13T07:16:27.063Z,8.70
2018-09-13T07:20:21.143Z,9.28
2018-09-13T07:24:15.097Z,8.87
2018-09-13T07:28:09.090Z,9.37
2018-09-13T07:32:03.047Z,9.50
2018-09-13T07:35:57.013Z,9.23
2018-09-13T07:39:50.995Z,9.47
2018-09-13T07:43:44.963Z,9.30
2018-09-13T07:47:38.878Z,8.80
2018-09-13T07:51:32.836Z,9.10
2018-09-13T07:55:26.787Z,8.77
2018-09-13T07:59:20.854Z,10.07
2018-09-13T08:03:14.831Z,9.38
2018-09-13T08:07:08.826Z,8.50
2018-09-13T08:11:02.854Z,10.30
2018-09-13T08:14:56.828Z,9.20
2018-09-13T08:18:50.845Z,10.53
2018-09-13T08:22:44.775Z,11.00
2018-09-13T08:26:38.761Z,11.63
2018-09-13T08:30:33.400Z,8.47
2018-09-13T08:34:27.584Z,8.37
2018-09-13T08:38:21.561Z,8.13
2018-09-13T08:42:15.547Z,7.97
2018-09-13T08:46:09.875Z,6.30
2018-09-13T08:50:03.885Z,5.20
2018-09-13T08:53:57.888Z,4.67
2018-09-13T08:57:54.420Z,4.57
2018-09-13T09:01:48.545Z,4.03
2018-09-13T09:05:42.486Z,4.20
2018-09-13T09:09:37.050Z,3.80
2018-09-13T09:13:31.181Z,3.63
2018-09-13T09:17:25.101Z,4.30
2018-09-13T09:21:19.376Z,4.67
2018-09-13T09:25:13.303Z,4.40
2018-09-13T09:29:07.708Z,5.27
2018-09-13T09:33:01.618Z,6.40
2018-09-13T09:36:55.571Z,5.50
2018-09-13T09:40:50.026Z,5.83
2018-09-13T09:44:44.065Z,5.83
2018-09-13T09:48:38.256Z,7.10
2018-09-13T09:52:32.422Z,5.20
2018-09-13T09:56:26.565Z,3.60
2018-09-13T10:00:27.573Z,4.47
2018-09-13T10:04:21.748Z,5.30
2018-09-13T10:08:15.763Z,4.70
2018-09-13T10:12:10.260Z,6.50
2018-09-13T10:16:09.750Z,8.20
2018-09-13T10:20:09.079Z,7.13
2018-09-13T10:24:08.492Z,7.60
2018-09-13T10:28:07.750Z,7.20
2018-09-13T10:32:08.537Z,7.53
2018-09-13T10:36:07.824Z,6.93
2018-09-13T10:40:07.241Z,7.00
2018-09-13T10:44:06.722Z,7.60
2018-09-13T10:48:30.500Z,6.33
2018-09-13T10:52:30.845Z,6.53
2018-09-13T10:56:24.864Z,6.67
2018-09-13T11:00:18.803Z,7.03
2018-09-13T11:04:12.813Z,7.03
2018-09-13T11:08:06.900Z,6.03
2018-09-13T11:12:00.966Z,6.27
2018-09-13T11:15:54.935Z,5.20
2018-09-13T11:19:48.971Z,5.20
2018-09-13T11:23:43.003Z,5.90
2018-09-13T11:27:38.235Z,5.67
2018-09-13T11:31:32.243Z,6.40
2018-09-13T11:35:26.263Z,4.83
2018-09-13T11:39:20.572Z,6.20
2018-09-13T11:43:14.544Z,5.60
2018-09-13T11:47:08.617Z,6.57
2018-09-13T11:51:02.554Z,5.80
2018-09-13T11:54:56.688Z,7.73
2018-09-13T11:58:50.634Z,10.93
2018-09-13T12:02:44.709Z,7.37
2018-09-13T12:06:38.839Z,7.70
2018-09-13T12:10:33.158Z,8.67
2018-09-13T12:14:27.156Z,8.57
2018-09-13T12:18:21.143Z,7.90
2018-09-13T12:22:15.076Z,7.80
2018-09-13T12:26:09.144Z,7.67
2018-09-13T12:30:04.186Z,6.97
2018-09-13T12:33:58.199Z,7.57
2018-09-13T12:37:52.158Z,6.50
2018-09-13T12:41:46.172Z,8.10
2018-09-13T12:45:40.418Z,9.47
2018-09-13T12:49:34.846Z,8.90
2018-09-13T12:53:31.364Z,8.50
2018-09-13T12:57:25.455Z,8.63
2018-09-13T13:01:19.437Z,7.80
2018-09-13T13:05:14.561Z,7.43
2018-09-13T13:09:09.896Z,8.30
2018-09-13T13:13:04.024Z,8.63
2018-09-13T13:16:58.196Z,8.10
2018-09-13T13:20:52.254Z,6.60
2018-09-13T13:24:46.258Z,6.47
2018-09-13T13:28:40.615Z,7.72
2018-09-13T13:32:34.711Z,7.50
2018-09-13T13:36:28.708Z,7.26
2018-09-13T13:46:43.954Z,7.00
2018-09-13T13:50:37.964Z,9.03
2018-09-13T13:54:32.003Z,8.60
2018-09-13T13:58:26.011Z,8.27
2018-09-13T14:02:20.400Z,8.00
2018-09-13T14:06:14.740Z,8.30
2018-09-13T14:10:08.755Z,7.17
2018-09-13T14:14:02.683Z,6.33
2018-09-13T14:17:56.643Z,5.73
2018-09-13T14:21:50.603Z,6.33
2018-09-13T14:25:44.642Z,7.00
2018-09-13T14:29:38.570Z,7.30
2018-09-13T14:33:33.048Z,6.60
2018-09-13T14:37:27.478Z,6.17
2018-09-13T14:41:21.909Z,5.50
2018-09-13T14:45:15.886Z,5.60
2018-09-13T14:49:09.896Z,8.30
2018-09-13T14:53:03.920Z,5.67
2018-09-13T14:56:57.949Z,5.87
2018-09-13T15:00:51.919Z,6.03
2018-09-13T15:04:45.973Z,5.60
2018-09-13T15:08:39.940Z,5.90
2018-09-13T15:12:34.338Z,5.60
2018-09-13T15:16:28.989Z,5.97
2018-09-13T15:20:22.976Z,5.97
2018-09-13T15:24:17.377Z,5.47
2018-09-13T15:28:11.529Z,5.50
2018-09-13T15:32:05.646Z,5.77
2018-09-13T15:35:59.684Z,6.03
2018-09-13T15:39:53.722Z,5.53
2018-09-13T15:43:48.433Z,5.40
2018-09-13T15:47:42.881Z,5.10
2018-09-13T15:51:37.643Z,5.10
2018-09-13T15:55:31.679Z,4.80
2018-09-13T15:59:25.845Z,4.80
2018-09-13T16:03:19.763Z,5.13
2018-09-13T16:07:13.835Z,3.50
2018-09-13T16:11:07.886Z,4.30
2018-09-13T16:15:01.949Z,3.97
2018-09-13T16:18:55.984Z,3.97
2018-09-13T16:22:50.127Z,4.27
2018-09-13T16:26:44.495Z,4.00
2018-09-13T16:30:38.512Z,3.97
2018-09-13T16:34:32.538Z,3.63
2018-09-13T16:38:31.922Z,4.13
2018-09-13T16:42:33.301Z,5.90
2018-09-13T16:46:33.378Z,4.30
2018-09-13T16:50:27.576Z,3.50
2018-09-13T16:54:21.806Z,3.70
2018-09-13T16:58:15.806Z,4.00
2018-09-13T17:02:09.806Z,3.40
2018-09-13T17:06:03.732Z,3.47
2018-09-13T17:09:57.847Z,2.97
2018-09-13T17:13:51.888Z,2.67
2018-09-13T17:17:45.974Z,2.73
2018-09-13T17:21:40.515Z,3.40
2018-09-13T17:25:34.458Z,3.17
2018-09-13T17:29:28.483Z,2.87
2018-09-13T17:33:22.422Z,3.67
2018-09-13T17:37:16.446Z,4.10
2018-09-13T17:41:10.390Z,4.17
2018-09-13T17:45:04.919Z,5.17
2018-09-13T17:48:59.041Z,5.33
2018-09-13T17:52:55.191Z,4.70
2018-09-13T17:56:49.331Z,4.80
2018-09-13T18:00:43.343Z,3.97
2018-09-13T18:04:37.309Z,5.50
2018-09-13T18:08:31.445Z,6.17
2018-09-13T18:12:25.403Z,5.23
2018-09-13T18:16:19.400Z,5.30
2018-09-13T18:20:13.386Z,5.30
2018-09-13T18:24:07.480Z,5.73
2018-09-13T18:28:02.264Z,5.07
2018-09-13T18:31:56.219Z,5.23
2018-09-13T18:35:50.261Z,4.93
2018-09-13T18:39:44.207Z,5.80
2018-09-13T18:43:38.286Z,5.47
2018-09-13T18:47:32.269Z,5.90
2018-09-13T18:51:27.337Z,6.17
2018-09-13T18:55:21.941Z,6.17
2018-09-13T18:59:15.949Z,6.10
2018-09-13T19:03:09.995Z,6.63
2018-09-13T19:07:04.117Z,9.03
2018-09-13T19:10:58.193Z,8.10
2018-09-13T19:14:52.143Z,6.70
2018-09-13T19:18:46.098Z,7.33
2018-09-13T19:22:40.137Z,7.00
2018-09-13T19:26:34.138Z,9.20
2018-09-13T19:30:28.159Z,7.93
2018-09-13T19:34:22.107Z,7.43
2018-09-13T19:38:16.038Z,8.10
2018-09-13T19:42:10.016Z,8.10
2018-09-13T19:46:04.122Z,7.80
2018-09-13T19:49:58.133Z,7.63
2018-09-13T19:53:52.183Z,8.13
2018-09-13T19:57:46.170Z,7.77
2018-09-13T20:01:40.122Z,8.53
2018-09-13T20:05:34.118Z,8.80
2018-09-13T20:09:28.098Z,10.03
2018-09-13T20:13:22.256Z,9.80
2018-09-13T20:17:16.220Z,9.80
2018-09-13T20:21:10.217Z,9.23
2018-09-13T20:25:04.328Z,8.70
2018-09-13T20:28:58.371Z,9.30
2018-09-13T20:32:52.297Z,8.67
2018-09-13T20:36:46.284Z,8.50
2018-09-13T20:40:40.319Z,8.57
2018-09-13T20:44:34.274Z,9.47
2018-09-13T20:48:28.277Z,9.43
2018-09-13T20:52:22.468Z,9.50
2018-09-13T20:56:18.633Z,9.07
2018-09-13T21:00:16.834Z,9.63
2018-09-13T21:04:10.751Z,9.40
2018-09-13T21:08:04.789Z,9.53
2018-09-13T21:11:59.079Z,9.97
2018-09-13T21:15:53.079Z,9.80
2018-09-13T21:19:47.042Z,8.27
2018-09-13T21:23:41.423Z,8.70
2018-09-13T21:27:35.399Z,8.80
2018-09-13T21:31:29.333Z,6.57
2018-09-13T21:35:23.287Z,6.97
2018-09-13T21:39:17.357Z,6.30
2018-09-13T21:43:11.432Z,6.50
2018-09-13T21:47:05.358Z,5.40
2018-09-13T21:50:59.944Z,5.80
2018-09-13T21:54:53.996Z,5.43
2018-09-13T21:58:48.392Z,5.40
2018-09-13T22:02:42.368Z,4.77
2018-09-13T22:06:36.547Z,4.87
2018-09-13T22:10:30.511Z,4.43
2018-09-13T22:14:24.450Z,4.27
2018-09-13T22:18:18.385Z,3.67
2018-09-13T22:22:12.339Z,3.60
2018-09-13T22:26:06.538Z,3.20
2018-09-13T22:30:00.715Z,3.30
2018-09-13T22:33:54.679Z,3.70
2018-09-13T22:37:48.679Z,3.70
2018-09-13T22:41:42.659Z,4.20
2018-09-13T22:45:36.630Z,3.87
2018-09-13T22:49:30.567Z,3.87
2018-09-13T22:53:24.570Z,4.77
2018-09-13T22:57:19.183Z,3.97
2018-09-13T23:01:13.088Z,4.43
2018-09-13T23:05:07.094Z,4.70
2018-09-13T23:09:01.032Z,4.10
2018-09-13T23:12:55.028Z,4.23
2018-09-13T23:16:49.574Z,4.23
2018-09-13T23:20:42.966Z,4.80
2018-09-13T23:24:36.950Z,4.27
2018-09-13T23:28:30.912Z,4.30
2018-09-13T23:32:25.454Z,4.60
2018-09-13T23:36:19.440Z,4.67
2018-09-13T23:40:13.677Z,4.60
2018-09-13T23:44:07.471Z,4.20
2018-09-13T23:48:01.641Z,4.33
2018-09-13T23:51:55.591Z,4.00
2018-09-13T23:55:49.555Z,4.23
2018-09-13T23:59:43.512Z,4.53
